sensor_id;sensor_type;location;lat;lon;timestamp;temperature;humidity
13697;DHT22;6920;50.080;8.226;2023-07-28T00:03:53;17.00;99.90
13697;DHT22;6920;50.080;8.226;2023-07-28T00:06:22;17.00;99.90
13697;DHT22;6920;50.080;8.226;2023-07-28T00:08:49;17.00;99.90
13697;DHT22;6920;50.080;8.226;2023-07-28T00:11:16;17.00;99.90
13697;DHT22;6920;50.080;8.226;2023-07-28T00:13:43;17.00;99.90
13697;DHT22;6920;50.080;8.226;2023-07-28T00:16:11;17.00;99.90
13697;DHT22;6920;50.080;8.226;2023-07-28T00:21:06;17.00;99.90
13697;DHT22;6920;50.080;8.226;2023-07-28T00:23:34;17.00;99.90
13697;DHT22;6920;50.080;8.226;2023-07-28T00:26:01;17.00;99.90
13697;DHT22;6920;50.080;8.226;2023-07-28T00:28:28;17.00;99.90
13697;DHT22;6920;50.080;8.226;2023-07-28T00:30:56;17.00;99.90
13697;DHT22;6920;50.080;8.226;2023-07-28T00:33:23;17.00;99.90
13697;DHT22;6920;50.080;8.226;2023-07-28T00:40:46;16.90;99.90
13697;DHT22;6920;50.080;8.226;2023-07-28T00:43:13;16.90;99.90
13697;DHT22;6920;50.080;8.226;2023-07-28T00:45:40;16.90;99.90
13697;DHT22;6920;50.080;8.226;2023-07-28T00:48:12;16.70;99.90
13697;DHT22;6920;50.080;8.226;2023-07-28T00:50:40;16.90;99.90
13697;DHT22;6920;50.080;8.226;2023-07-28T00:53:08;16.90;99.90
13697;DHT22;6920;50.080;8.226;2023-07-28T00:55:35;16.80;99.90
13697;DHT22;6920;50.080;8.226;2023-07-28T00:58:03;16.90;99.90
13697;DHT22;6920;50.080;8.226;2023-07-28T01:00:31;17.00;99.90
13697;DHT22;6920;50.080;8.226;2023-07-28T01:05:28;17.00;99.90
13697;DHT22;6920;50.080;8.226;2023-07-28T01:08:03;16.90;99.90
13697;DHT22;6920;50.080;8.226;2023-07-28T01:13:00;16.90;99.90
13697;DHT22;6920;50.080;8.226;2023-07-28T01:15:29;16.90;99.90
13697;DHT22;6920;50.080;8.226;2023-07-28T01:20:25;17.00;99.90
13697;DHT22;6920;50.080;8.226;2023-07-28T01:23:08;17.00;99.90
13697;DHT22;6920;50.080;8.226;2023-07-28T01:25:47;16.90;99.90
13697;DHT22;6920;50.080;8.226;2023-07-28T01:28:17;16.90;99.90
13697;DHT22;6920;50.080;8.226;2023-07-28T01:30:45;16.90;99.90
13697;DHT22;6920;50.080;8.226;2023-07-28T01:33:12;16.90;99.90
13697;DHT22;6920;50.080;8.226;2023-07-28T01:38:07;16.90;99.90
13697;DHT22;6920;50.080;8.226;2023-07-28T01:43:01;16.90;99.90
13697;DHT22;6920;50.080;8.226;2023-07-28T01:45:30;16.90;99.90
13697;DHT22;6920;50.080;8.226;2023-07-28T01:50:25;17.00;99.90
13697;DHT22;6920;50.080;8.226;2023-07-28T01:52:52;17.00;99.90
13697;DHT22;6920;50.080;8.226;2023-07-28T01:55:19;17.00;99.90
13697;DHT22;6920;50.080;8.226;2023-07-28T02:00:19;16.90;99.90
13697;DHT22;6920;50.080;8.226;2023-07-28T02:12:38;17.00;99.90
13697;DHT22;6920;50.080;8.226;2023-07-28T02:15:06;16.90;99.90
13697;DHT22;6920;50.080;8.226;2023-07-28T02:17:47;16.90;99.90
13697;DHT22;6920;50.080;8.226;2023-07-28T02:20:14;17.00;99.90
13697;DHT22;6920;50.080;8.226;2023-07-28T02:22:42;17.00;99.90
13697;DHT22;6920;50.080;8.226;2023-07-28T02:25:09;17.00;99.90
13697;DHT22;6920;50.080;8.226;2023-07-28T02:30:07;16.90;99.90
13697;DHT22;6920;50.080;8.226;2023-07-28T02:32:34;17.00;99.90
13697;DHT22;6920;50.080;8.226;2023-07-28T02:35:03;17.00;99.90
13697;DHT22;6920;50.080;8.226;2023-07-28T02:39:58;16.90;99.90
13697;DHT22;6920;50.080;8.226;2023-07-28T02:42:25;17.00;99.90
13697;DHT22;6920;50.080;8.226;2023-07-28T02:47:20;17.00;99.90
13697;DHT22;6920;50.080;8.226;2023-07-28T02:49:47;17.00;99.90
13697;DHT22;6920;50.080;8.226;2023-07-28T02:52:16;17.00;99.90
13697;DHT22;6920;50.080;8.226;2023-07-28T02:54:43;17.00;99.90
13697;DHT22;6920;50.080;8.226;2023-07-28T02:59:37;17.00;99.90
13697;DHT22;6920;50.080;8.226;2023-07-28T03:02:05;17.00;99.90
13697;DHT22;6920;50.080;8.226;2023-07-28T03:07:00;17.00;99.90
13697;DHT22;6920;50.080;8.226;2023-07-28T03:09:29;17.00;99.90
13697;DHT22;6920;50.080;8.226;2023-07-28T03:11:56;17.00;99.90
13697;DHT22;6920;50.080;8.226;2023-07-28T03:14:24;17.00;99.90
13697;DHT22;6920;50.080;8.226;2023-07-28T03:16:52;17.00;99.90
13697;DHT22;6920;50.080;8.226;2023-07-28T03:21:46;17.10;99.90
13697;DHT22;6920;50.080;8.226;2023-07-28T03:26:42;17.10;99.90
13697;DHT22;6920;50.080;8.226;2023-07-28T03:29:09;17.10;99.90
13697;DHT22;6920;50.080;8.226;2023-07-28T03:34:03;17.10;99.90
13697;DHT22;6920;50.080;8.226;2023-07-28T03:36:31;17.00;99.90
13697;DHT22;6920;50.080;8.226;2023-07-28T03:38:58;17.10;99.90
13697;DHT22;6920;50.080;8.226;2023-07-28T03:41:25;17.10;99.90
13697;DHT22;6920;50.080;8.226;2023-07-28T03:46:20;17.10;99.90
13697;DHT22;6920;50.080;8.226;2023-07-28T03:48:47;17.10;99.90
13697;DHT22;6920;50.080;8.226;2023-07-28T03:51:14;17.10;99.90
13697;DHT22;6920;50.080;8.226;2023-07-28T03:56:09;17.10;99.90
13697;DHT22;6920;50.080;8.226;2023-07-28T03:58:36;17.10;99.90
13697;DHT22;6920;50.080;8.226;2023-07-28T04:03:33;17.20;99.90
13697;DHT22;6920;50.080;8.226;2023-07-28T04:06:09;17.10;99.90
13697;DHT22;6920;50.080;8.226;2023-07-28T04:08:36;17.20;99.90
13697;DHT22;6920;50.080;8.226;2023-07-28T04:11:03;17.20;99.90
13697;DHT22;6920;50.080;8.226;2023-07-28T04:13:30;17.20;99.90
13697;DHT22;6920;50.080;8.226;2023-07-28T04:15:59;17.30;99.90
13697;DHT22;6920;50.080;8.226;2023-07-28T04:18:28;17.30;99.90
13697;DHT22;6920;50.080;8.226;2023-07-28T04:33:12;17.30;99.90
13697;DHT22;6920;50.080;8.226;2023-07-28T04:35:41;17.30;99.90
13697;DHT22;6920;50.080;8.226;2023-07-28T04:38:08;17.30;99.90
13697;DHT22;6920;50.080;8.226;2023-07-28T04:40:35;17.30;99.90
13697;DHT22;6920;50.080;8.226;2023-07-28T04:43:03;17.30;99.90
13697;DHT22;6920;50.080;8.226;2023-07-28T04:45:30;17.40;99.90
13697;DHT22;6920;50.080;8.226;2023-07-28T04:47:57;17.40;99.90
13697;DHT22;6920;50.080;8.226;2023-07-28T04:50:24;17.40;99.90
13697;DHT22;6920;50.080;8.226;2023-07-28T04:52:52;17.30;99.90
13697;DHT22;6920;50.080;8.226;2023-07-28T04:55:19;17.40;99.90
13697;DHT22;6920;50.080;8.226;2023-07-28T04:57:46;17.30;99.90
13697;DHT22;6920;50.080;8.226;2023-07-28T05:00:15;17.40;99.90
13697;DHT22;6920;50.080;8.226;2023-07-28T05:05:09;17.40;99.90
13697;DHT22;6920;50.080;8.226;2023-07-28T05:10:06;17.40;99.90
13697;DHT22;6920;50.080;8.226;2023-07-28T05:12:33;17.40;99.90
13697;DHT22;6920;50.080;8.226;2023-07-28T05:15:00;17.50;99.90
13697;DHT22;6920;50.080;8.226;2023-07-28T05:25:46;17.60;99.90
13697;DHT22;6920;50.080;8.226;2023-07-28T05:28:13;17.60;99.90
13697;DHT22;6920;50.080;8.226;2023-07-28T05:30:40;17.70;99.90
13697;DHT22;6920;50.080;8.226;2023-07-28T05:33:07;17.70;99.90
13697;DHT22;6920;50.080;8.226;2023-07-28T05:35:34;17.70;99.90
13697;DHT22;6920;50.080;8.226;2023-07-28T05:38:01;17.80;99.90
13697;DHT22;6920;50.080;8.226;2023-07-28T05:40:28;17.90;99.90
13697;DHT22;6920;50.080;8.226;2023-07-28T05:42:56;18.00;99.90
13697;DHT22;6920;50.080;8.226;2023-07-28T05:45:23;18.10;99.90
13697;DHT22;6920;50.080;8.226;2023-07-28T05:47:50;18.10;99.90
13697;DHT22;6920;50.080;8.226;2023-07-28T05:52:45;18.20;99.90
13697;DHT22;6920;50.080;8.226;2023-07-28T05:55:12;18.30;99.90
13697;DHT22;6920;50.080;8.226;2023-07-28T05:57:39;18.30;99.90
13697;DHT22;6920;50.080;8.226;2023-07-28T06:00:09;18.40;99.90
13697;DHT22;6920;50.080;8.226;2023-07-28T06:02:37;18.30;99.90
13697;DHT22;6920;50.080;8.226;2023-07-28T06:05:05;18.40;99.90
13697;DHT22;6920;50.080;8.226;2023-07-28T06:07:32;18.30;99.90
13697;DHT22;6920;50.080;8.226;2023-07-28T06:09:59;18.30;99.90
13697;DHT22;6920;50.080;8.226;2023-07-28T06:14:53;18.30;99.90
13697;DHT22;6920;50.080;8.226;2023-07-28T06:17:22;18.40;99.90
13697;DHT22;6920;50.080;8.226;2023-07-28T06:19:49;18.50;99.90
13697;DHT22;6920;50.080;8.226;2023-07-28T06:22:16;18.60;99.90
13697;DHT22;6920;50.080;8.226;2023-07-28T06:24:43;18.60;99.90
13697;DHT22;6920;50.080;8.226;2023-07-28T06:27:11;18.70;99.90
13697;DHT22;6920;50.080;8.226;2023-07-28T06:32:06;18.80;99.90
13697;DHT22;6920;50.080;8.226;2023-07-28T06:34:34;18.90;99.90
13697;DHT22;6920;50.080;8.226;2023-07-28T06:37:01;19.10;99.90
13697;DHT22;6920;50.080;8.226;2023-07-28T06:39:29;19.40;99.90
13697;DHT22;6920;50.080;8.226;2023-07-28T06:41:56;19.60;99.90
13697;DHT22;6920;50.080;8.226;2023-07-28T06:44:23;19.90;99.90
13697;DHT22;6920;50.080;8.226;2023-07-28T06:46:50;19.70;99.90
13697;DHT22;6920;50.080;8.226;2023-07-28T06:49:17;19.60;99.90
13697;DHT22;6920;50.080;8.226;2023-07-28T06:51:45;19.50;99.90
13697;DHT22;6920;50.080;8.226;2023-07-28T06:54:12;19.50;99.90
13697;DHT22;6920;50.080;8.226;2023-07-28T06:56:40;19.70;99.90
13697;DHT22;6920;50.080;8.226;2023-07-28T06:59:07;19.70;99.90
13697;DHT22;6920;50.080;8.226;2023-07-28T07:01:34;19.70;99.90
13697;DHT22;6920;50.080;8.226;2023-07-28T07:04:01;19.70;99.90
13697;DHT22;6920;50.080;8.226;2023-07-28T07:06:30;19.80;99.90
13697;DHT22;6920;50.080;8.226;2023-07-28T07:08:58;19.90;99.90
13697;DHT22;6920;50.080;8.226;2023-07-28T07:11:25;19.90;99.90
13697;DHT22;6920;50.080;8.226;2023-07-28T07:13:52;20.00;99.90
13697;DHT22;6920;50.080;8.226;2023-07-28T07:16:19;19.90;99.90
13697;DHT22;6920;50.080;8.226;2023-07-28T07:21:14;20.00;99.90
13697;DHT22;6920;50.080;8.226;2023-07-28T07:26:10;20.00;99.90
13697;DHT22;6920;50.080;8.226;2023-07-28T07:28:37;20.10;99.90
13697;DHT22;6920;50.080;8.226;2023-07-28T07:31:04;20.20;99.90
13697;DHT22;6920;50.080;8.226;2023-07-28T07:33:31;20.20;99.90
13697;DHT22;6920;50.080;8.226;2023-07-28T07:38:25;20.40;99.90
13697;DHT22;6920;50.080;8.226;2023-07-28T07:43:21;20.50;99.90
13697;DHT22;6920;50.080;8.226;2023-07-28T07:45:48;20.60;99.90
13697;DHT22;6920;50.080;8.226;2023-07-28T07:48:17;20.60;99.90
13697;DHT22;6920;50.080;8.226;2023-07-28T07:50:44;20.50;99.90
13697;DHT22;6920;50.080;8.226;2023-07-28T07:53:11;20.50;99.90
13697;DHT22;6920;50.080;8.226;2023-07-28T07:58:05;21.40;99.90
13697;DHT22;6920;50.080;8.226;2023-07-28T08:00:42;21.80;99.90
13697;DHT22;6920;50.080;8.226;2023-07-28T08:03:10;21.60;99.90
13697;DHT22;6920;50.080;8.226;2023-07-28T08:05:37;21.60;99.90
13697;DHT22;6920;50.080;8.226;2023-07-28T08:08:05;21.30;99.90
13697;DHT22;6920;50.080;8.226;2023-07-28T08:10:33;21.30;99.90
13697;DHT22;6920;50.080;8.226;2023-07-28T08:13:00;21.30;99.90
13697;DHT22;6920;50.080;8.226;2023-07-28T08:15:29;21.30;99.90
13697;DHT22;6920;50.080;8.226;2023-07-28T08:17:58;21.30;99.90
13697;DHT22;6920;50.080;8.226;2023-07-28T08:22:52;21.40;99.90
13697;DHT22;6920;50.080;8.226;2023-07-28T08:25:19;21.40;99.90
13697;DHT22;6920;50.080;8.226;2023-07-28T08:27:48;21.40;99.90
13697;DHT22;6920;50.080;8.226;2023-07-28T08:30:15;21.60;99.90
13697;DHT22;6920;50.080;8.226;2023-07-28T08:32:43;21.50;99.90
13697;DHT22;6920;50.080;8.226;2023-07-28T08:35:11;21.40;99.90
13697;DHT22;6920;50.080;8.226;2023-07-28T08:37:38;21.40;99.90
13697;DHT22;6920;50.080;8.226;2023-07-28T08:40:06;21.70;99.90
13697;DHT22;6920;50.080;8.226;2023-07-28T08:42:37;21.70;99.90
13697;DHT22;6920;50.080;8.226;2023-07-28T08:45:05;21.60;99.90
13697;DHT22;6920;50.080;8.226;2023-07-28T08:47:34;21.80;99.90
13697;DHT22;6920;50.080;8.226;2023-07-28T08:50:01;21.90;99.90
13697;DHT22;6920;50.080;8.226;2023-07-28T08:52:30;22.20;99.90
13697;DHT22;6920;50.080;8.226;2023-07-28T08:54:58;22.40;99.90
13697;DHT22;6920;50.080;8.226;2023-07-28T08:57:25;22.90;99.90
13697;DHT22;6920;50.080;8.226;2023-07-28T08:59:52;22.90;99.90
13697;DHT22;6920;50.080;8.226;2023-07-28T09:02:19;22.60;99.90
13697;DHT22;6920;50.080;8.226;2023-07-28T09:04:48;22.30;99.90
13697;DHT22;6920;50.080;8.226;2023-07-28T09:07:16;22.30;99.90
13697;DHT22;6920;50.080;8.226;2023-07-28T09:09:44;22.30;99.90
13697;DHT22;6920;50.080;8.226;2023-07-28T09:12:12;22.60;99.90
13697;DHT22;6920;50.080;8.226;2023-07-28T09:14:39;22.80;99.90
13697;DHT22;6920;50.080;8.226;2023-07-28T09:17:08;22.70;99.90
13697;DHT22;6920;50.080;8.226;2023-07-28T09:19:50;22.70;99.90
13697;DHT22;6920;50.080;8.226;2023-07-28T09:22:18;22.70;99.90
13697;DHT22;6920;50.080;8.226;2023-07-28T09:24:49;22.70;99.90
13697;DHT22;6920;50.080;8.226;2023-07-28T09:27:21;22.50;99.90
13697;DHT22;6920;50.080;8.226;2023-07-28T09:29:49;22.40;99.90
13697;DHT22;6920;50.080;8.226;2023-07-28T09:32:27;22.30;99.90
13697;DHT22;6920;50.080;8.226;2023-07-28T09:35:06;22.40;99.90
13697;DHT22;6920;50.080;8.226;2023-07-28T09:37:37;22.50;99.90
13697;DHT22;6920;50.080;8.226;2023-07-28T09:40:09;22.70;99.90
13697;DHT22;6920;50.080;8.226;2023-07-28T09:42:38;23.00;99.90
13697;DHT22;6920;50.080;8.226;2023-07-28T09:45:06;23.40;99.90
13697;DHT22;6920;50.080;8.226;2023-07-28T09:47:35;23.50;99.90
13697;DHT22;6920;50.080;8.226;2023-07-28T09:50:07;23.40;99.90
13697;DHT22;6920;50.080;8.226;2023-07-28T09:52:38;23.30;99.90
13697;DHT22;6920;50.080;8.226;2023-07-28T09:55:10;23.20;99.90
13697;DHT22;6920;50.080;8.226;2023-07-28T09:57:43;23.20;99.90
13697;DHT22;6920;50.080;8.226;2023-07-28T10:00:13;23.20;99.90
13697;DHT22;6920;50.080;8.226;2023-07-28T10:02:50;23.20;99.90
13697;DHT22;6920;50.080;8.226;2023-07-28T10:05:18;23.30;99.90
13697;DHT22;6920;50.080;8.226;2023-07-28T10:07:48;23.40;99.90
13697;DHT22;6920;50.080;8.226;2023-07-28T10:10:17;23.40;99.90
13697;DHT22;6920;50.080;8.226;2023-07-28T10:12:47;23.50;99.90
13697;DHT22;6920;50.080;8.226;2023-07-28T10:18:35;23.70;99.90
13697;DHT22;6920;50.080;8.226;2023-07-28T10:21:05;23.60;99.90
13697;DHT22;6920;50.080;8.226;2023-07-28T10:23:34;23.70;99.90
13697;DHT22;6920;50.080;8.226;2023-07-28T10:26:04;23.80;99.90
13697;DHT22;6920;50.080;8.226;2023-07-28T10:28:34;24.00;99.90
13697;DHT22;6920;50.080;8.226;2023-07-28T10:31:05;24.00;99.90
13697;DHT22;6920;50.080;8.226;2023-07-28T10:33:34;24.00;99.90
13697;DHT22;6920;50.080;8.226;2023-07-28T10:36:15;24.00;99.90
13697;DHT22;6920;50.080;8.226;2023-07-28T10:38:43;23.90;99.90
13697;DHT22;6920;50.080;8.226;2023-07-28T10:41:15;23.70;99.90
13697;DHT22;6920;50.080;8.226;2023-07-28T10:43:43;23.60;99.90
13697;DHT22;6920;50.080;8.226;2023-07-28T10:46:13;23.40;99.90
13697;DHT22;6920;50.080;8.226;2023-07-28T10:48:42;23.40;99.90
13697;DHT22;6920;50.080;8.226;2023-07-28T10:51:10;23.80;99.90
13697;DHT22;6920;50.080;8.226;2023-07-28T10:53:38;23.90;99.90
13697;DHT22;6920;50.080;8.226;2023-07-28T10:56:06;24.20;99.90
13697;DHT22;6920;50.080;8.226;2023-07-28T10:58:37;24.60;99.90
13697;DHT22;6920;50.080;8.226;2023-07-28T11:01:05;24.60;99.90
13697;DHT22;6920;50.080;8.226;2023-07-28T11:03:33;24.40;99.90
13697;DHT22;6920;50.080;8.226;2023-07-28T11:06:01;24.00;99.90
13697;DHT22;6920;50.080;8.226;2023-07-28T11:08:30;23.90;99.90
13697;DHT22;6920;50.080;8.226;2023-07-28T11:10:59;24.20;99.90
13697;DHT22;6920;50.080;8.226;2023-07-28T11:13:27;24.80;99.90
13697;DHT22;6920;50.080;8.226;2023-07-28T11:15:56;25.60;99.90
13697;DHT22;6920;50.080;8.226;2023-07-28T11:18:26;25.90;99.90
13697;DHT22;6920;50.080;8.226;2023-07-28T11:20:54;25.70;99.90
13697;DHT22;6920;50.080;8.226;2023-07-28T11:23:21;25.70;99.90
13697;DHT22;6920;50.080;8.226;2023-07-28T11:25:49;25.80;99.90
13697;DHT22;6920;50.080;8.226;2023-07-28T11:28:19;25.90;99.90
13697;DHT22;6920;50.080;8.226;2023-07-28T11:33:16;25.30;99.90
13697;DHT22;6920;50.080;8.226;2023-07-28T11:35:44;25.10;99.90
13697;DHT22;6920;50.080;8.226;2023-07-28T11:38:13;24.80;99.90
13697;DHT22;6920;50.080;8.226;2023-07-28T11:40:41;24.70;99.90
13697;DHT22;6920;50.080;8.226;2023-07-28T11:43:09;24.60;99.90
13697;DHT22;6920;50.080;8.226;2023-07-28T11:45:36;24.40;99.90
13697;DHT22;6920;50.080;8.226;2023-07-28T11:48:05;24.20;99.90
13697;DHT22;6920;50.080;8.226;2023-07-28T11:50:39;24.40;99.90
13697;DHT22;6920;50.080;8.226;2023-07-28T11:53:09;24.60;99.90
13697;DHT22;6920;50.080;8.226;2023-07-28T11:55:38;24.50;99.90
13697;DHT22;6920;50.080;8.226;2023-07-28T11:58:06;24.50;99.90
13697;DHT22;6920;50.080;8.226;2023-07-28T12:00:35;24.30;99.90
13697;DHT22;6920;50.080;8.226;2023-07-28T12:03:05;24.30;99.90
13697;DHT22;6920;50.080;8.226;2023-07-28T12:06:06;24.20;99.90
13697;DHT22;6920;50.080;8.226;2023-07-28T12:08:35;24.20;99.90
13697;DHT22;6920;50.080;8.226;2023-07-28T12:11:03;24.10;99.90
13697;DHT22;6920;50.080;8.226;2023-07-28T12:13:31;23.80;99.90
13697;DHT22;6920;50.080;8.226;2023-07-28T12:15:58;23.50;99.90
13697;DHT22;6920;50.080;8.226;2023-07-28T12:18:30;23.30;99.90
13697;DHT22;6920;50.080;8.226;2023-07-28T12:23:29;23.50;99.90
13697;DHT22;6920;50.080;8.226;2023-07-28T12:25:57;23.40;99.90
13697;DHT22;6920;50.080;8.226;2023-07-28T12:28:24;23.20;99.90
13697;DHT22;6920;50.080;8.226;2023-07-28T12:30:51;23.00;99.90
13697;DHT22;6920;50.080;8.226;2023-07-28T12:33:21;23.00;99.90
13697;DHT22;6920;50.080;8.226;2023-07-28T12:35:49;22.90;99.90
13697;DHT22;6920;50.080;8.226;2023-07-28T12:38:17;22.70;99.90
13697;DHT22;6920;50.080;8.226;2023-07-28T12:40:46;22.80;99.90
13697;DHT22;6920;50.080;8.226;2023-07-28T12:45:41;22.70;99.90
13697;DHT22;6920;50.080;8.226;2023-07-28T12:48:09;22.10;99.90
13697;DHT22;6920;50.080;8.226;2023-07-28T12:50:36;21.30;99.90
13697;DHT22;6920;50.080;8.226;2023-07-28T12:53:04;20.80;99.90
13697;DHT22;6920;50.080;8.226;2023-07-28T12:55:31;20.60;99.90
13697;DHT22;6920;50.080;8.226;2023-07-28T12:58:02;20.70;99.90
13697;DHT22;6920;50.080;8.226;2023-07-28T13:00:29;20.70;99.90
13697;DHT22;6920;50.080;8.226;2023-07-28T13:02:57;20.70;99.90
13697;DHT22;6920;50.080;8.226;2023-07-28T13:05:24;20.80;99.90
13697;DHT22;6920;50.080;8.226;2023-07-28T13:10:19;21.00;99.90
13697;DHT22;6920;50.080;8.226;2023-07-28T13:12:47;21.20;99.90
13697;DHT22;6920;50.080;8.226;2023-07-28T13:15:16;21.20;99.90
13697;DHT22;6920;50.080;8.226;2023-07-28T13:20:11;21.50;99.90
13697;DHT22;6920;50.080;8.226;2023-07-28T13:22:38;21.60;99.90
13697;DHT22;6920;50.080;8.226;2023-07-28T13:25:06;21.70;99.90
13697;DHT22;6920;50.080;8.226;2023-07-28T13:27:34;21.70;99.90
13697;DHT22;6920;50.080;8.226;2023-07-28T13:30:02;21.80;99.90
13697;DHT22;6920;50.080;8.226;2023-07-28T13:32:33;21.80;99.90
13697;DHT22;6920;50.080;8.226;2023-07-28T13:37:29;21.80;99.90
13697;DHT22;6920;50.080;8.226;2023-07-28T13:39:57;21.70;99.90
13697;DHT22;6920;50.080;8.226;2023-07-28T13:44:51;21.60;99.90
13697;DHT22;6920;50.080;8.226;2023-07-28T13:47:19;21.60;99.90
13697;DHT22;6920;50.080;8.226;2023-07-28T13:49:48;21.60;99.90
13697;DHT22;6920;50.080;8.226;2023-07-28T13:52:15;21.40;99.90
13697;DHT22;6920;50.080;8.226;2023-07-28T13:54:43;21.20;99.90
13697;DHT22;6920;50.080;8.226;2023-07-28T13:57:10;21.30;99.90
13697;DHT22;6920;50.080;8.226;2023-07-28T13:59:40;21.30;99.90
13697;DHT22;6920;50.080;8.226;2023-07-28T14:02:07;21.30;99.90
13697;DHT22;6920;50.080;8.226;2023-07-28T14:04:35;21.40;99.90
13697;DHT22;6920;50.080;8.226;2023-07-28T14:07:04;21.40;99.90
13697;DHT22;6920;50.080;8.226;2023-07-28T14:11:59;21.20;99.90
13697;DHT22;6920;50.080;8.226;2023-07-28T14:16:55;21.30;99.90
13697;DHT22;6920;50.080;8.226;2023-07-28T14:19:22;21.20;99.90
13697;DHT22;6920;50.080;8.226;2023-07-28T14:21:50;21.10;99.90
13697;DHT22;6920;50.080;8.226;2023-07-28T14:24:18;21.10;99.90
13697;DHT22;6920;50.080;8.226;2023-07-28T14:26:46;21.20;99.90
13697;DHT22;6920;50.080;8.226;2023-07-28T14:29:13;21.20;99.90
13697;DHT22;6920;50.080;8.226;2023-07-28T14:34:08;21.20;99.90
13697;DHT22;6920;50.080;8.226;2023-07-28T14:36:36;21.30;99.90
13697;DHT22;6920;50.080;8.226;2023-07-28T14:39:03;21.20;99.90
13697;DHT22;6920;50.080;8.226;2023-07-28T14:41:32;21.20;99.90
13697;DHT22;6920;50.080;8.226;2023-07-28T14:44:00;21.20;99.90
13697;DHT22;6920;50.080;8.226;2023-07-28T14:48:55;21.30;99.90
13697;DHT22;6920;50.080;8.226;2023-07-28T14:51:22;21.20;99.90
13697;DHT22;6920;50.080;8.226;2023-07-28T14:56:18;21.50;99.90
13697;DHT22;6920;50.080;8.226;2023-07-28T14:58:48;21.60;99.90
13697;DHT22;6920;50.080;8.226;2023-07-28T15:01:17;21.70;99.90
13697;DHT22;6920;50.080;8.226;2023-07-28T15:03:44;21.90;99.90
13697;DHT22;6920;50.080;8.226;2023-07-28T15:06:12;22.10;99.90
13697;DHT22;6920;50.080;8.226;2023-07-28T15:08:40;22.10;99.90
13697;DHT22;6920;50.080;8.226;2023-07-28T15:11:08;22.10;99.90
13697;DHT22;6920;50.080;8.226;2023-07-28T15:13:35;21.90;99.90
13697;DHT22;6920;50.080;8.226;2023-07-28T15:16:04;21.80;99.90
13697;DHT22;6920;50.080;8.226;2023-07-28T15:18:32;21.80;99.90
13697;DHT22;6920;50.080;8.226;2023-07-28T15:21:00;21.90;99.90
13697;DHT22;6920;50.080;8.226;2023-07-28T15:23:28;22.00;99.90
13697;DHT22;6920;50.080;8.226;2023-07-28T15:28:24;22.00;99.90
13697;DHT22;6920;50.080;8.226;2023-07-28T15:30:51;22.30;99.90
13697;DHT22;6920;50.080;8.226;2023-07-28T15:33:22;22.40;99.90
13697;DHT22;6920;50.080;8.226;2023-07-28T15:35:51;22.40;99.90
13697;DHT22;6920;50.080;8.226;2023-07-28T15:38:18;22.50;99.90
13697;DHT22;6920;50.080;8.226;2023-07-28T15:40:46;22.80;99.90
13697;DHT22;6920;50.080;8.226;2023-07-28T15:45:40;22.50;99.90
13697;DHT22;6920;50.080;8.226;2023-07-28T15:48:08;22.30;99.90
13697;DHT22;6920;50.080;8.226;2023-07-28T15:50:37;22.40;99.90
13697;DHT22;6920;50.080;8.226;2023-07-28T15:53:04;22.50;99.90
13697;DHT22;6920;50.080;8.226;2023-07-28T15:55:31;22.50;99.90
13697;DHT22;6920;50.080;8.226;2023-07-28T15:57:59;22.60;99.90
13697;DHT22;6920;50.080;8.226;2023-07-28T16:00:27;22.70;99.90
13697;DHT22;6920;50.080;8.226;2023-07-28T16:02:55;22.70;99.90
13697;DHT22;6920;50.080;8.226;2023-07-28T16:05:23;22.70;99.90
13697;DHT22;6920;50.080;8.226;2023-07-28T16:07:51;22.60;99.90
13697;DHT22;6920;50.080;8.226;2023-07-28T16:10:19;22.70;99.90
13697;DHT22;6920;50.080;8.226;2023-07-28T16:12:47;22.60;99.90
13697;DHT22;6920;50.080;8.226;2023-07-28T16:15:14;22.60;99.90
13697;DHT22;6920;50.080;8.226;2023-07-28T16:17:42;22.70;99.90
13697;DHT22;6920;50.080;8.226;2023-07-28T16:20:11;22.80;99.90
13697;DHT22;6920;50.080;8.226;2023-07-28T16:22:38;23.00;99.90
13697;DHT22;6920;50.080;8.226;2023-07-28T16:25:08;23.00;99.90
13697;DHT22;6920;50.080;8.226;2023-07-28T16:27:35;23.00;99.90
13697;DHT22;6920;50.080;8.226;2023-07-28T16:30:05;23.00;99.90
13697;DHT22;6920;50.080;8.226;2023-07-28T16:32:33;22.90;99.90
13697;DHT22;6920;50.080;8.226;2023-07-28T16:35:01;22.90;99.90
13697;DHT22;6920;50.080;8.226;2023-07-28T16:37:28;22.90;99.90
13697;DHT22;6920;50.080;8.226;2023-07-28T16:42:26;22.90;99.90
13697;DHT22;6920;50.080;8.226;2023-07-28T16:44:54;22.90;99.90
13697;DHT22;6920;50.080;8.226;2023-07-28T16:47:21;22.70;99.90
13697;DHT22;6920;50.080;8.226;2023-07-28T16:49:49;22.60;99.90
13697;DHT22;6920;50.080;8.226;2023-07-28T16:52:17;22.60;99.90
13697;DHT22;6920;50.080;8.226;2023-07-28T16:54:44;22.50;99.90
13697;DHT22;6920;50.080;8.226;2023-07-28T16:57:12;22.40;99.90
13697;DHT22;6920;50.080;8.226;2023-07-28T16:59:41;22.40;99.90
13697;DHT22;6920;50.080;8.226;2023-07-28T17:02:08;22.30;99.90
13697;DHT22;6920;50.080;8.226;2023-07-28T17:07:04;22.40;99.90
13697;DHT22;6920;50.080;8.226;2023-07-28T17:11:59;22.40;99.90
13697;DHT22;6920;50.080;8.226;2023-07-28T17:14:27;22.40;99.90
13697;DHT22;6920;50.080;8.226;2023-07-28T17:16:56;22.40;99.90
13697;DHT22;6920;50.080;8.226;2023-07-28T17:21:51;22.30;99.90
13697;DHT22;6920;50.080;8.226;2023-07-28T17:24:18;22.30;99.90
13697;DHT22;6920;50.080;8.226;2023-07-28T17:26:46;22.30;99.90
13697;DHT22;6920;50.080;8.226;2023-07-28T17:29:14;22.30;99.90
13697;DHT22;6920;50.080;8.226;2023-07-28T17:31:41;22.20;99.90
13697;DHT22;6920;50.080;8.226;2023-07-28T17:34:11;22.20;99.90
13697;DHT22;6920;50.080;8.226;2023-07-28T17:36:38;22.20;99.90
13697;DHT22;6920;50.080;8.226;2023-07-28T17:39:06;22.20;99.90
13697;DHT22;6920;50.080;8.226;2023-07-28T17:41:33;22.10;99.90
13697;DHT22;6920;50.080;8.226;2023-07-28T17:44:01;22.10;99.90
13697;DHT22;6920;50.080;8.226;2023-07-28T17:46:28;22.10;99.90
13697;DHT22;6920;50.080;8.226;2023-07-28T17:48:56;22.00;99.90
13697;DHT22;6920;50.080;8.226;2023-07-28T17:51:24;22.00;99.90
13697;DHT22;6920;50.080;8.226;2023-07-28T17:53:52;22.00;99.90
13697;DHT22;6920;50.080;8.226;2023-07-28T17:56:20;21.90;99.90
13697;DHT22;6920;50.080;8.226;2023-07-28T17:58:47;21.90;99.90
13697;DHT22;6920;50.080;8.226;2023-07-28T18:01:15;21.90;99.90
13697;DHT22;6920;50.080;8.226;2023-07-28T18:03:42;21.90;99.90
13697;DHT22;6920;50.080;8.226;2023-07-28T18:06:10;21.80;99.90
13697;DHT22;6920;50.080;8.226;2023-07-28T18:08:39;21.80;99.90
13697;DHT22;6920;50.080;8.226;2023-07-28T18:11:06;21.80;99.90
13697;DHT22;6920;50.080;8.226;2023-07-28T18:16:03;21.80;99.90
13697;DHT22;6920;50.080;8.226;2023-07-28T18:18:31;21.80;99.90
13697;DHT22;6920;50.080;8.226;2023-07-28T18:21:01;21.80;99.90
13697;DHT22;6920;50.080;8.226;2023-07-28T18:23:29;21.70;99.90
13697;DHT22;6920;50.080;8.226;2023-07-28T18:25:58;21.70;99.90
13697;DHT22;6920;50.080;8.226;2023-07-28T18:28:25;21.60;99.90
13697;DHT22;6920;50.080;8.226;2023-07-28T18:30:54;21.70;99.90
13697;DHT22;6920;50.080;8.226;2023-07-28T18:33:21;21.70;99.90